»·PEaware :: N545DS KVUO-KUAO

N545DS :: KVUO-KUAO

FLIGHT INFORMATION

Flight Status: Arrived
Operator: Privately registered:
United States
More flights under this callsign
Pilot: Francisco M. (12844)
Aircraft: CESSNA 172 SKYHAWK
(C172)
More flights by this aircraft type
Origin: KVUO Pearson
United States
Destination: KUAO Aurora State
United States
More flights between these airports :: More routes between these airports
Route: +BTG KUAO
File this flight plan on PilotEdge
Remarks:
Altitude:
(Current/Filed)
4,000ft
Speed:
(Current/Filed)
115kts
Departed: 06-May-18 12:26 PM
Arrived: 06-May-18 12:53 PM
Distance/Time
Traveled:
23nm/0:27
Distance/Time
To Go:
Arrived

Flight Plot

Page will automatically refresh every two minutes.

Flight plan parsing failed; only flown route is shown


Map Options




Map Legend


Flown Route
Filed Route
Departure Airport
Arrival Airport
Navaid (VOR, NDB)
Fix

Horizontal Profiles

Position Reports

Time Latitude Longitude Heading Altitude Ground
Speed
06-May-18 11:35 45.621531 -122.655573 188 30ft 0kts
06-May-18 11:36 45.621531 -122.655573 188 30ft 0kts
06-May-18 11:37 45.621531 -122.655573 188 30ft 0kts
06-May-18 11:38 45.621531 -122.655573 188 30ft 0kts
06-May-18 11:39 45.621531 -122.655573 188 30ft 0kts
06-May-18 11:40 45.621531 -122.655573 188 30ft 0kts
06-May-18 11:41 45.621531 -122.655573 188 30ft 0kts
06-May-18 11:42 45.621531 -122.655573 188 30ft 0kts
06-May-18 11:43 45.621531 -122.655573 188 30ft 0kts
06-May-18 11:44 45.621531 -122.655573 188 30ft 0kts
06-May-18 11:45 45.621531 -122.655573 188 30ft 0kts
06-May-18 11:46 45.621531 -122.655573 188 30ft 0kts
06-May-18 11:47 45.621531 -122.655573 188 30ft 0kts
06-May-18 11:48 45.621531 -122.655573 188 30ft 0kts
06-May-18 11:49 45.621531 -122.655573 188 30ft 0kts
06-May-18 11:50 45.621531 -122.655573 188 30ft 0kts
06-May-18 11:51 45.621531 -122.655573 188 30ft 0kts
06-May-18 11:52 45.621531 -122.655573 188 30ft 0kts
06-May-18 11:53 45.621531 -122.655573 188 30ft 0kts
06-May-18 11:54 45.621531 -122.655573 188 30ft 0kts
06-May-18 11:55 45.621531 -122.655573 188 30ft 0kts
06-May-18 11:56 45.621531 -122.655573 188 30ft 0kts
06-May-18 11:57 45.621531 -122.655573 188 30ft 0kts
06-May-18 11:58 45.621531 -122.655573 188 30ft 0kts
06-May-18 11:58 45.621531 -122.655573 188 30ft 0kts
06-May-18 11:59 45.621531 -122.655573 188 30ft 0kts
06-May-18 12:00 45.621531 -122.655573 188 30ft 0kts
06-May-18 12:01 45.621531 -122.655573 188 30ft 0kts
06-May-18 12:02 45.621531 -122.655573 188 30ft 0kts
06-May-18 12:03 45.621531 -122.655573 188 30ft 0kts
06-May-18 12:04 45.621531 -122.655573 188 30ft 0kts
06-May-18 12:05 45.621531 -122.655573 188 30ft 0kts
06-May-18 12:06 45.621531 -122.655573 188 30ft 0kts
06-May-18 12:07 45.621531 -122.655573 188 30ft 0kts
06-May-18 12:08 45.621531 -122.655573 188 30ft 0kts
06-May-18 12:09 45.621531 -122.655573 188 30ft 0kts
06-May-18 12:10 45.621531 -122.655573 188 30ft 0kts
06-May-18 12:11 45.621531 -122.655573 188 30ft 0kts
06-May-18 12:12 45.621531 -122.655573 188 30ft 0kts
06-May-18 12:13 45.621531 -122.655573 188 30ft 0kts
06-May-18 12:14 45.621531 -122.655573 188 30ft 0kts
06-May-18 12:15 45.621531 -122.655573 188 30ft 0kts
06-May-18 12:16 45.621531 -122.655573 188 30ft 0kts
06-May-18 12:17 45.621531 -122.655573 188 30ft 0kts
06-May-18 12:18 45.621531 -122.655573 188 30ft 0kts
06-May-18 12:19 45.621531 -122.655573 188 30ft 0kts
06-May-18 12:20 45.621442 -122.655567 165 30ft 5kts
06-May-18 12:21 45.621098 -122.651621 156 31ft 3kts
06-May-18 12:22 45.620262 -122.650271 132 28ft 0kts
06-May-18 12:23 45.620262 -122.650271 132 28ft 0kts
06-May-18 12:24 45.619985 -122.650188 190 27ft 11kts
06-May-18 12:25 45.622247 -122.672781 276 741ft 70kts
06-May-18 12:27 45.622038 -122.664534 94 1612ft 77kts
06-May-18 12:28 45.640447 -122.653276 6 2602ft 78kts
06-May-18 12:29 45.660491 -122.645066 23 3590ft 74kts
06-May-18 12:30 45.681281 -122.638029 3 4264ft 98kts
06-May-18 12:31 45.701919 -122.620960 47 4462ft 112kts
06-May-18 12:32 45.719701 -122.591136 49 3881ft 104kts
06-May-18 12:33 45.738688 -122.567235 86 3817ft 91kts
06-May-18 12:34 45.716346 -122.570671 218 3635ft 111kts
06-May-18 12:35 45.691636 -122.590718 179 3548ft 105kts
06-May-18 12:36 45.662705 -122.592572 188 3466ft 103kts
06-May-18 12:37 45.634285 -122.601452 190 3364ft 104kts
06-May-18 12:38 45.605971 -122.610282 191 3146ft 103kts
06-May-18 12:39 45.577810 -122.619602 184 3184ft 105kts
06-May-18 12:40 45.548038 -122.625595 189 3139ft 114kts
06-May-18 12:41 45.517796 -122.635924 182 3135ft 110kts
06-May-18 12:42 45.488100 -122.645130 190 3188ft 114kts
06-May-18 12:43 45.457225 -122.652347 195 3214ft 111kts
06-May-18 12:44 45.426553 -122.653247 168 3182ft 112kts
06-May-18 12:45 45.397057 -122.648217 223 3114ft 115kts
06-May-18 12:46 45.397386 -122.689550 271 3194ft 108kts
06-May-18 12:47 45.384744 -122.725376 244 2696ft 114kts
06-May-18 12:48 45.359583 -122.746691 207 2258ft 108kts
06-May-18 12:49 45.331397 -122.753243 184 1674ft 106kts
06-May-18 12:50 45.302639 -122.756416 187 1120ft 104kts
06-May-18 12:51 45.274941 -122.762858 182 803ft 68kts
06-May-18 12:52 45.259362 -122.767868 183 251ft 62kts
06-May-18 12:53 45.251927 -122.769103 178 201ft 17kts
06-May-18 12:54 45.251193 -122.768235 89 201ft 0kts

Navigation Log

Ident Type
Flight plan parsing failed, navigation log unavailable